Pagrindinis puslapis
METAR-TAF:

METAR-TAF

Oro uostai :

Librevilio oro uostas

Librevilis, Gabonas

platuma: 00-27N, ilguma: 009-25E, Aukštis: 12 m

Dabartinis oras

Ataskaita buvo paskelbta 25 minutes, ne 23:00 UTC
Vėjas 2 kt nuo kintamojo kryptimis
Temperatūra 26°C
Drėgmė 94%
Slėgis 1009 hPa
Matomumas: 8000 m
Mažai debesys ne aukštis 1000 ft

METAR: FOOL 212300Z VRB02KT 8000 FEW010 26/25 Q1009 NOSIG

Laikas: 00:25 (23:25 UTC)

Prognozė

Ataskaita buvo paskelbta 6 valandos ir 17 minutes, ne 17:08 UTC
Prognozė galioja nuo 21 metu 18 UTC su 22 metu 24 UTC
Vėjas 7 kt iš Pietų/Pietvakarių
Matomumas: 8000 m
Išsisklaidę debesys ne aukštis 1000 ft
Mažai debesys ne aukštis 1600 ft, Liūtiniai kamuoliniai debesys.
Su prošvaistėmis ne aukštis 3000 ft
Tikimybė 30% :
Laikinai
nuo 21 metu 22 UTC su 22 metu 04 UTC
Matomumas: 3500 m
perkūnija, lietus
Laikinai
nuo 22 metu 04 UTC su 22 metu 07 UTC
Matomumas: 4000 m
rūkana

TAF: FOOL 211708Z 2118/2224 21007KT 8000 SCT010 FEW016CB BKN030 PROB30 TEMPO 2122/2204 3500 TSRA TEMPO 2204/2207 4000 BR

Orai ataskaitas ir orų prognozės (METAR, TAF).

turimą stotys yra geltonos ir raudonos taškus žemėlapyje.

Perkelti pele per norėdami pamatyti stoties vardą.

Tada spustelėkite, norėdami matyti oro stebėjimo ir prognozės.

Norėdami pakeisti žemėlapį: spustelėkite ant žalios mygtukų su juodo kryžiaus žemyn,; žalią mygtuką su brūkšneliu, jei norite nutolinti; arba žalių rodyklių gretimoms žemėlapius.


METAR-TAF: